sensor_id;sensor_type;location;lat;lon;timestamp;pressure;altitude;pressure_sealevel;temperature;humidity
66945;BME280;53853;51.982;5.928;2023-05-08T00:00:48;101987.63;;;16.37;86.99
66945;BME280;53853;51.982;5.928;2023-05-08T00:03:18;101986.94;;;16.35;86.65
66945;BME280;53853;51.982;5.928;2023-05-08T00:05:48;101983.41;;;16.34;86.50
66945;BME280;53853;51.982;5.928;2023-05-08T00:08:17;101980.72;;;16.34;86.69
66945;BME280;53853;51.982;5.928;2023-05-08T00:10:50;101976.50;;;16.32;86.46
66945;BME280;53853;51.982;5.928;2023-05-08T00:13:20;101975.81;;;16.29;86.30
66945;BME280;53853;51.982;5.928;2023-05-08T00:15:50;101978.50;;;16.29;86.46
66945;BME280;53853;51.982;5.928;2023-05-08T00:18:20;101978.50;;;16.29;86.71
66945;BME280;53853;51.982;5.928;2023-05-08T00:20:49;101976.81;;;16.28;86.59
66945;BME280;53853;51.982;5.928;2023-05-08T00:23:19;101971.75;;;16.25;86.81
66945;BME280;53853;51.982;5.928;2023-05-08T00:25:52;101971.75;;;16.25;86.96
66945;BME280;53853;51.982;5.928;2023-05-08T00:28:22;101970.09;;;16.24;87.15
66945;BME280;53853;51.982;5.928;2023-05-08T00:30:52;101975.63;;;16.23;86.83
66945;BME280;53853;51.982;5.928;2023-05-08T00:33:22;101970.41;;;16.21;86.59
66945;BME280;53853;51.982;5.928;2023-05-08T00:35:57;101966.19;;;16.19;86.63
66945;BME280;53853;51.982;5.928;2023-05-08T00:38:28;101975.44;;;16.16;86.64
66945;BME280;53853;51.982;5.928;2023-05-08T00:41:01;101970.03;;;16.16;86.49
66945;BME280;53853;51.982;5.928;2023-05-08T00:43:31;101977.41;;;16.14;86.68
66945;BME280;53853;51.982;5.928;2023-05-08T00:46:01;101968.66;;;16.12;86.37
66945;BME280;53853;51.982;5.928;2023-05-08T00:48:32;101965.16;;;16.11;86.25
66945;BME280;53853;51.982;5.928;2023-05-08T00:51:05;101961.59;;;16.11;86.49
66945;BME280;53853;51.982;5.928;2023-05-08T00:53:38;101956.69;;;16.06;86.23
66945;BME280;53853;51.982;5.928;2023-05-08T00:56:14;101961.38;;;16.04;86.27
66945;BME280;53853;51.982;5.928;2023-05-08T00:58:45;101963.56;;;16.01;86.52
66945;BME280;53853;51.982;5.928;2023-05-08T01:01:15;101959.47;;;15.97;86.13
66945;BME280;53853;51.982;5.928;2023-05-08T01:03:45;101958.28;;;15.91;86.11
66945;BME280;53853;51.982;5.928;2023-05-08T01:06:15;101959.44;;;15.88;85.98
66945;BME280;53853;51.982;5.928;2023-05-08T01:08:45;101960.75;;;15.84;85.70
66945;BME280;53853;51.982;5.928;2023-05-08T01:11:24;101967.44;;;15.80;85.80
66945;BME280;53853;51.982;5.928;2023-05-08T01:14:06;101967.03;;;15.75;85.89
66945;BME280;53853;51.982;5.928;2023-05-08T01:16:43;101959.44;;;15.70;85.50
66945;BME280;53853;51.982;5.928;2023-05-08T01:19:38;101956.38;;;15.65;85.74
66945;BME280;53853;51.982;5.928;2023-05-08T01:22:19;101956.16;;;15.58;85.72
66945;BME280;53853;51.982;5.928;2023-05-08T01:25:24;101952.41;;;15.51;85.74
66945;BME280;53853;51.982;5.928;2023-05-08T01:28:25;101951.31;;;15.44;85.72
66945;BME280;53853;51.982;5.928;2023-05-08T01:31:11;101958.03;;;15.40;86.02
66945;BME280;53853;51.982;5.928;2023-05-08T01:33:50;101954.78;;;15.36;86.06
66945;BME280;53853;51.982;5.928;2023-05-08T01:36:27;101950.72;;;15.32;85.69
66945;BME280;53853;51.982;5.928;2023-05-08T01:39:08;101957.09;;;15.31;85.73
66945;BME280;53853;51.982;5.928;2023-05-08T01:41:40;101957.56;;;15.27;85.77
66945;BME280;53853;51.982;5.928;2023-05-08T01:44:16;101959.56;;;15.25;85.94
66945;BME280;53853;51.982;5.928;2023-05-08T01:46:48;101958.88;;;15.23;86.23
66945;BME280;53853;51.982;5.928;2023-05-08T01:49:25;101956.50;;;15.19;85.86
66945;BME280;53853;51.982;5.928;2023-05-08T01:51:59;101958.47;;;15.17;86.31
66945;BME280;53853;51.982;5.928;2023-05-08T01:54:38;101954.25;;;15.15;86.56
66945;BME280;53853;51.982;5.928;2023-05-08T01:57:10;101958.09;;;15.12;86.41
66945;BME280;53853;51.982;5.928;2023-05-08T01:59:42;101964.75;;;15.08;86.39
66945;BME280;53853;51.982;5.928;2023-05-08T02:02:13;101963.38;;;15.04;86.52
66945;BME280;53853;51.982;5.928;2023-05-08T02:04:47;101961.81;;;15.01;86.43
66945;BME280;53853;51.982;5.928;2023-05-08T02:07:19;101963.00;;;14.99;86.83
66945;BME280;53853;51.982;5.928;2023-05-08T02:09:51;101963.16;;;14.97;86.98
66945;BME280;53853;51.982;5.928;2023-05-08T02:12:24;101973.00;;;14.97;86.65
66945;BME280;53853;51.982;5.928;2023-05-08T02:14:56;101971.78;;;14.91;86.51
66945;BME280;53853;51.982;5.928;2023-05-08T02:17:28;101974.63;;;14.90;87.01
66945;BME280;53853;51.982;5.928;2023-05-08T02:20:02;101980.31;;;14.87;87.18
66945;BME280;53853;51.982;5.928;2023-05-08T02:22:34;101974.94;;;14.87;86.81
66945;BME280;53853;51.982;5.928;2023-05-08T02:25:06;101976.06;;;14.84;86.57
66945;BME280;53853;51.982;5.928;2023-05-08T02:27:39;101985.13;;;14.83;86.60
66945;BME280;53853;51.982;5.928;2023-05-08T02:30:13;101978.06;;;14.82;86.54
66945;BME280;53853;51.982;5.928;2023-05-08T02:32:45;101973.81;;;14.79;86.53
66945;BME280;53853;51.982;5.928;2023-05-08T02:35:19;101975.81;;;14.77;86.59
66945;BME280;53853;51.982;5.928;2023-05-08T02:37:54;101979.63;;;14.75;86.60
66945;BME280;53853;51.982;5.928;2023-05-08T02:40:26;101971.06;;;14.71;86.63
66945;BME280;53853;51.982;5.928;2023-05-08T02:42:57;101968.50;;;14.70;86.57
66945;BME280;53853;51.982;5.928;2023-05-08T02:45:35;101971.34;;;14.68;86.73
66945;BME280;53853;51.982;5.928;2023-05-08T02:48:11;101966.97;;;14.67;86.93
66945;BME280;53853;51.982;5.928;2023-05-08T02:50:50;101968.97;;;14.65;86.73
66945;BME280;53853;51.982;5.928;2023-05-08T02:53:29;101972.81;;;14.62;86.59
66945;BME280;53853;51.982;5.928;2023-05-08T02:56:05;101971.25;;;14.60;86.83
66945;BME280;53853;51.982;5.928;2023-05-08T02:58:39;101973.78;;;14.61;87.25
66945;BME280;53853;51.982;5.928;2023-05-08T03:01:19;101973.50;;;14.64;87.06
66945;BME280;53853;51.982;5.928;2023-05-08T03:03:57;101967.16;;;14.65;87.21
66945;BME280;53853;51.982;5.928;2023-05-08T03:06:34;101975.00;;;14.67;87.10
66945;BME280;53853;51.982;5.928;2023-05-08T03:09:06;101975.00;;;14.67;86.93
66945;BME280;53853;51.982;5.928;2023-05-08T03:11:39;101966.97;;;14.67;86.49
66945;BME280;53853;51.982;5.928;2023-05-08T03:14:12;101967.28;;;14.64;86.65
66945;BME280;53853;51.982;5.928;2023-05-08T03:16:44;101960.53;;;14.60;86.09
66945;BME280;53853;51.982;5.928;2023-05-08T03:19:20;101961.75;;;14.56;86.30
66945;BME280;53853;51.982;5.928;2023-05-08T03:21:54;101970.81;;;14.55;86.67
66945;BME280;53853;51.982;5.928;2023-05-08T03:24:27;101965.75;;;14.52;86.38
66945;BME280;53853;51.982;5.928;2023-05-08T03:26:58;101965.91;;;14.50;86.30
66945;BME280;53853;51.982;5.928;2023-05-08T03:29:30;101973.41;;;14.46;86.44
66945;BME280;53853;51.982;5.928;2023-05-08T03:32:01;101971.84;;;14.44;86.56
66945;BME280;53853;51.982;5.928;2023-05-08T03:34:32;101972.97;;;14.41;86.36
66945;BME280;53853;51.982;5.928;2023-05-08T03:37:06;101973.13;;;14.40;86.71
66945;BME280;53853;51.982;5.928;2023-05-08T03:39:36;101973.28;;;14.38;86.59
66945;BME280;53853;51.982;5.928;2023-05-08T03:42:06;101967.91;;;14.38;86.62
66945;BME280;53853;51.982;5.928;2023-05-08T03:44:36;101968.94;;;14.37;86.27
66945;BME280;53853;51.982;5.928;2023-05-08T03:47:07;101973.72;;;14.34;86.32
66945;BME280;53853;51.982;5.928;2023-05-08T03:49:39;101970.88;;;14.35;86.65
66945;BME280;53853;51.982;5.928;2023-05-08T03:52:11;101977.25;;;14.34;86.84
66945;BME280;53853;51.982;5.928;2023-05-08T03:54:42;101974.72;;;14.32;86.56
66945;BME280;53853;51.982;5.928;2023-05-08T03:57:13;101981.06;;;14.31;86.67
66945;BME280;53853;51.982;5.928;2023-05-08T03:59:48;101981.91;;;14.32;86.77
66945;BME280;53853;51.982;5.928;2023-05-08T04:02:24;101975.72;;;14.31;86.70
66945;BME280;53853;51.982;5.928;2023-05-08T04:05:13;101974.19;;;14.29;86.46
66945;BME280;53853;51.982;5.928;2023-05-08T04:07:54;101969.81;;;14.28;86.29
66945;BME280;53853;51.982;5.928;2023-05-08T04:10:31;101968.25;;;14.25;86.19
66945;BME280;53853;51.982;5.928;2023-05-08T04:13:04;101963.03;;;14.24;86.84
66945;BME280;53853;51.982;5.928;2023-05-08T04:15:42;101958.81;;;14.21;87.08
66945;BME280;53853;51.982;5.928;2023-05-08T04:18:16;101964.34;;;14.20;86.87
66945;BME280;53853;51.982;5.928;2023-05-08T04:20:48;101960.78;;;14.19;87.01
66945;BME280;53853;51.982;5.928;2023-05-08T04:23:22;101959.81;;;14.20;87.06
66945;BME280;53853;51.982;5.928;2023-05-08T04:25:53;101961.66;;;14.20;86.69
66945;BME280;53853;51.982;5.928;2023-05-08T04:28:24;101970.38;;;14.22;86.81
66945;BME280;53853;51.982;5.928;2023-05-08T04:30:55;101974.75;;;14.23;86.99
66945;BME280;53853;51.982;5.928;2023-05-08T04:33:25;101976.44;;;14.24;86.94
66945;BME280;53853;51.982;5.928;2023-05-08T04:35:59;101972.63;;;14.26;86.75
66945;BME280;53853;51.982;5.928;2023-05-08T04:38:35;101985.19;;;14.26;86.51
66945;BME280;53853;51.982;5.928;2023-05-08T04:41:06;101983.22;;;14.28;86.18
66945;BME280;53853;51.982;5.928;2023-05-08T04:43:36;101985.59;;;14.31;85.99
66945;BME280;53853;51.982;5.928;2023-05-08T04:46:08;101976.53;;;14.32;86.13
66945;BME280;53853;51.982;5.928;2023-05-08T04:48:39;101977.56;;;14.31;85.91
66945;BME280;53853;51.982;5.928;2023-05-08T04:51:09;101988.28;;;14.31;86.30
66945;BME280;53853;51.982;5.928;2023-05-08T04:53:41;101987.28;;;14.32;86.04
66945;BME280;53853;51.982;5.928;2023-05-08T04:56:11;101985.59;;;14.31;85.72
66945;BME280;53853;51.982;5.928;2023-05-08T04:58:41;101986.28;;;14.33;85.54
66945;BME280;53853;51.982;5.928;2023-05-08T05:01:11;101988.97;;;14.33;85.74
66945;BME280;53853;51.982;5.928;2023-05-08T05:03:43;101986.16;;;14.35;85.57
66945;BME280;53853;51.982;5.928;2023-05-08T05:06:13;101989.66;;;14.35;85.67
66945;BME280;53853;51.982;5.928;2023-05-08T05:08:45;101992.06;;;14.38;85.87
66945;BME280;53853;51.982;5.928;2023-05-08T05:11:15;101995.31;;;14.42;85.40
66945;BME280;53853;51.982;5.928;2023-05-08T05:13:45;102000.53;;;14.43;85.36
66945;BME280;53853;51.982;5.928;2023-05-08T05:16:15;101997.69;;;14.45;85.17
66945;BME280;53853;51.982;5.928;2023-05-08T05:18:46;102002.91;;;14.46;85.55
66945;BME280;53853;51.982;5.928;2023-05-08T05:21:15;102004.44;;;14.49;85.23
66945;BME280;53853;51.982;5.928;2023-05-08T05:23:48;102007.81;;;14.51;85.47
66945;BME280;53853;51.982;5.928;2023-05-08T05:26:18;102004.97;;;14.53;85.30
66945;BME280;53853;51.982;5.928;2023-05-08T05:28:48;102006.38;;;14.57;85.47
66945;BME280;53853;51.982;5.928;2023-05-08T05:31:17;102002.47;;;14.61;85.10
66945;BME280;53853;51.982;5.928;2023-05-08T05:33:47;102010.75;;;14.67;85.54
66945;BME280;53853;51.982;5.928;2023-05-08T05:36:18;102021.06;;;14.72;85.48
66945;BME280;53853;51.982;5.928;2023-05-08T05:38:50;102016.75;;;14.79;85.57
66945;BME280;53853;51.982;5.928;2023-05-08T05:41:20;102020.84;;;14.83;84.99
66945;BME280;53853;51.982;5.928;2023-05-08T05:43:50;102022.06;;;14.89;85.19
66945;BME280;53853;51.982;5.928;2023-05-08T05:46:21;102023.34;;;14.95;85.16
66945;BME280;53853;51.982;5.928;2023-05-08T05:48:54;102026.25;;;15.01;85.22
66945;BME280;53853;51.982;5.928;2023-05-08T05:51:24;102022.97;;;15.08;85.49
66945;BME280;53853;51.982;5.928;2023-05-08T05:53:57;102029.59;;;15.13;85.38
66945;BME280;53853;51.982;5.928;2023-05-08T05:56:27;102034.38;;;15.19;85.75
66945;BME280;53853;51.982;5.928;2023-05-08T05:58:56;102037.44;;;15.25;84.86
66945;BME280;53853;51.982;5.928;2023-05-08T06:01:27;102034.84;;;15.33;84.92
66945;BME280;53853;51.982;5.928;2023-05-08T06:03:57;102033.94;;;15.42;85.37
66945;BME280;53853;51.982;5.928;2023-05-08T06:06:27;102037.38;;;15.52;85.58
66945;BME280;53853;51.982;5.928;2023-05-08T06:09:00;102034.28;;;15.65;85.42
66945;BME280;53853;51.982;5.928;2023-05-08T06:11:30;102042.19;;;15.77;85.19
66945;BME280;53853;51.982;5.928;2023-05-08T06:14:00;102039.78;;;15.91;85.31
66945;BME280;53853;51.982;5.928;2023-05-08T06:16:30;102031.16;;;16.06;85.43
66945;BME280;53853;51.982;5.928;2023-05-08T06:19:01;102040.66;;;16.18;84.95
66945;BME280;53853;51.982;5.928;2023-05-08T06:21:31;102042.91;;;16.31;84.78
66945;BME280;53853;51.982;5.928;2023-05-08T06:24:03;102033.75;;;16.42;84.58
66945;BME280;53853;51.982;5.928;2023-05-08T06:26:33;102034.63;;;16.51;83.44
66945;BME280;53853;51.982;5.928;2023-05-08T06:29:03;102043.13;;;16.64;83.62
66945;BME280;53853;51.982;5.928;2023-05-08T06:31:33;102043.16;;;16.72;82.76
66945;BME280;53853;51.982;5.928;2023-05-08T06:34:07;102043.34;;;16.79;83.52
66945;BME280;53853;51.982;5.928;2023-05-08T06:36:36;102036.41;;;16.76;78.85
66945;BME280;53853;51.982;5.928;2023-05-08T06:39:09;102041.66;;;16.78;81.61
66945;BME280;53853;51.982;5.928;2023-05-08T06:41:39;102036.59;;;16.75;80.25
66945;BME280;53853;51.982;5.928;2023-05-08T06:44:09;102039.47;;;16.73;80.32
66945;BME280;53853;51.982;5.928;2023-05-08T06:46:39;102036.22;;;16.70;80.20
66945;BME280;53853;51.982;5.928;2023-05-08T06:49:09;102040.03;;;16.59;78.95
66945;BME280;53853;51.982;5.928;2023-05-08T06:51:38;102040.75;;;16.61;79.80
66945;BME280;53853;51.982;5.928;2023-05-08T06:54:11;102042.88;;;16.57;79.10
66945;BME280;53853;51.982;5.928;2023-05-08T06:56:41;102039.03;;;16.60;79.97
66945;BME280;53853;51.982;5.928;2023-05-08T06:59:10;102040.09;;;16.67;80.56
66945;BME280;53853;51.982;5.928;2023-05-08T07:01:42;102039.97;;;16.77;80.94
66945;BME280;53853;51.982;5.928;2023-05-08T07:04:12;102044.72;;;16.83;80.47
66945;BME280;53853;51.982;5.928;2023-05-08T07:06:42;102041.75;;;16.86;79.82
66945;BME280;53853;51.982;5.928;2023-05-08T07:09:14;102040.38;;;16.90;80.45
66945;BME280;53853;51.982;5.928;2023-05-08T07:11:58;102033.34;;;16.89;78.79
66945;BME280;53853;51.982;5.928;2023-05-08T07:14:28;102042.25;;;16.90;79.26
66945;BME280;53853;51.982;5.928;2023-05-08T07:17:01;102031.00;;;16.94;79.54
66945;BME280;53853;51.982;5.928;2023-05-08T07:19:33;102032.00;;;17.01;80.69
66945;BME280;53853;51.982;5.928;2023-05-08T07:22:04;102035.75;;;17.09;81.30
66945;BME280;53853;51.982;5.928;2023-05-08T07:24:37;102036.78;;;17.16;81.80
66945;BME280;53853;51.982;5.928;2023-05-08T07:27:06;102034.78;;;17.26;82.51
66945;BME280;53853;51.982;5.928;2023-05-08T07:29:39;102044.25;;;17.38;82.13
66945;BME280;53853;51.982;5.928;2023-05-08T07:32:09;102039.88;;;17.54;81.99
66945;BME280;53853;51.982;5.928;2023-05-08T07:34:39;102037.22;;;17.70;81.45
66945;BME280;53853;51.982;5.928;2023-05-08T07:37:09;102041.44;;;17.81;81.55
66945;BME280;53853;51.982;5.928;2023-05-08T07:39:42;102032.53;;;17.97;81.14
66945;BME280;53853;51.982;5.928;2023-05-08T07:42:13;102030.16;;;18.10;80.51
66945;BME280;53853;51.982;5.928;2023-05-08T07:44:44;102034.34;;;18.21;80.73
66945;BME280;53853;51.982;5.928;2023-05-08T07:47:13;102035.53;;;18.35;81.68
66945;BME280;53853;51.982;5.928;2023-05-08T07:49:44;102038.69;;;18.47;81.24
66945;BME280;53853;51.982;5.928;2023-05-08T07:52:13;102038.00;;;18.53;80.83
66945;BME280;53853;51.982;5.928;2023-05-08T07:54:46;102034.78;;;18.58;78.93
66945;BME280;53853;51.982;5.928;2023-05-08T07:57:15;102038.28;;;18.67;79.70
66945;BME280;53853;51.982;5.928;2023-05-08T07:59:45;102041.31;;;18.72;79.58
66945;BME280;53853;51.982;5.928;2023-05-08T08:02:15;102050.25;;;18.72;78.34
66945;BME280;53853;51.982;5.928;2023-05-08T08:04:45;102052.75;;;18.82;79.28
66945;BME280;53853;51.982;5.928;2023-05-08T08:07:15;102053.09;;;18.87;78.85
66945;BME280;53853;51.982;5.928;2023-05-08T08:09:47;102056.28;;;18.91;77.42
66945;BME280;53853;51.982;5.928;2023-05-08T08:12:17;102053.06;;;18.95;78.02
66945;BME280;53853;51.982;5.928;2023-05-08T08:14:47;102054.25;;;18.93;76.69
66945;BME280;53853;51.982;5.928;2023-05-08T08:17:17;102053.19;;;19.02;77.32
66945;BME280;53853;51.982;5.928;2023-05-08T08:19:47;102053.63;;;19.14;78.25
66945;BME280;53853;51.982;5.928;2023-05-08T08:22:17;102054.44;;;19.23;78.07
66945;BME280;53853;51.982;5.928;2023-05-08T08:24:49;102049.66;;;19.33;79.05
66945;BME280;53853;51.982;5.928;2023-05-08T08:27:19;102051.00;;;19.37;78.56
66945;BME280;53853;51.982;5.928;2023-05-08T08:29:49;102042.34;;;19.42;77.89
66945;BME280;53853;51.982;5.928;2023-05-08T08:32:19;102048.59;;;19.42;78.36
66945;BME280;53853;51.982;5.928;2023-05-08T08:34:49;102047.38;;;19.45;78.60
66945;BME280;53853;51.982;5.928;2023-05-08T08:37:18;102040.66;;;19.41;76.51
66945;BME280;53853;51.982;5.928;2023-05-08T08:39:52;102040.19;;;19.37;76.10
66945;BME280;53853;51.982;5.928;2023-05-08T08:42:22;102041.72;;;19.31;74.74
66945;BME280;53853;51.982;5.928;2023-05-08T08:44:52;102035.41;;;19.39;76.49
66945;BME280;53853;51.982;5.928;2023-05-08T08:47:24;102028.28;;;19.46;77.19
66945;BME280;53853;51.982;5.928;2023-05-08T08:49:58;102023.81;;;19.53;77.60
66945;BME280;53853;51.982;5.928;2023-05-08T08:52:37;102029.50;;;19.67;78.55
66945;BME280;53853;51.982;5.928;2023-05-08T08:55:15;102026.25;;;19.71;75.73
66945;BME280;53853;51.982;5.928;2023-05-08T08:57:51;102020.63;;;19.81;76.60
66945;BME280;53853;51.982;5.928;2023-05-08T09:00:27;102021.00;;;19.93;76.57
66945;BME280;53853;51.982;5.928;2023-05-08T09:02:58;102023.44;;;20.03;77.24
66945;BME280;53853;51.982;5.928;2023-05-08T09:05:28;102020.09;;;20.01;75.58
66945;BME280;53853;51.982;5.928;2023-05-08T09:07:59;102019.06;;;20.02;75.65
66945;BME280;53853;51.982;5.928;2023-05-08T09:10:33;102020.91;;;20.01;77.22
66945;BME280;53853;51.982;5.928;2023-05-08T09:13:03;102013.84;;;20.00;75.89
66945;BME280;53853;51.982;5.928;2023-05-08T09:15:33;102016.56;;;20.00;77.15
66945;BME280;53853;51.982;5.928;2023-05-08T09:18:03;102018.56;;;19.98;75.96
66945;BME280;53853;51.982;5.928;2023-05-08T09:20:33;102016.06;;;19.97;75.91
66945;BME280;53853;51.982;5.928;2023-05-08T09:23:03;102015.31;;;20.03;77.27
66945;BME280;53853;51.982;5.928;2023-05-08T09:25:46;102014.69;;;20.01;74.92
66945;BME280;53853;51.982;5.928;2023-05-08T09:28:17;102015.03;;;19.98;73.26
66945;BME280;53853;51.982;5.928;2023-05-08T09:30:51;102012.81;;;20.01;72.78
66945;BME280;53853;51.982;5.928;2023-05-08T09:33:23;102018.53;;;20.06;73.87
66945;BME280;53853;51.982;5.928;2023-05-08T09:35:53;102017.97;;;20.11;74.73
66945;BME280;53853;51.982;5.928;2023-05-08T09:38:36;102014.69;;;20.16;75.72
66945;BME280;53853;51.982;5.928;2023-05-08T09:41:12;102020.59;;;20.19;76.94
66945;BME280;53853;51.982;5.928;2023-05-08T09:43:43;102015.00;;;20.21;76.88
66945;BME280;53853;51.982;5.928;2023-05-08T09:46:24;102016.97;;;20.27;76.78
66945;BME280;53853;51.982;5.928;2023-05-08T09:48:56;102024.50;;;20.32;77.60
66945;BME280;53853;51.982;5.928;2023-05-08T09:51:27;102019.22;;;20.38;77.33
66945;BME280;53853;51.982;5.928;2023-05-08T09:53:58;102023.69;;;20.46;77.66
66945;BME280;53853;51.982;5.928;2023-05-08T09:56:36;102025.81;;;20.51;71.15
66945;BME280;53853;51.982;5.928;2023-05-08T09:59:22;102027.22;;;20.61;71.78
66945;BME280;53853;51.982;5.928;2023-05-08T10:01:53;102024.06;;;20.73;72.57
66945;BME280;53853;51.982;5.928;2023-05-08T10:04:32;102028.06;;;20.92;74.61
66945;BME280;53853;51.982;5.928;2023-05-08T10:07:02;102027.28;;;21.13;75.80
66945;BME280;53853;51.982;5.928;2023-05-08T10:09:33;102032.47;;;21.29;76.01
66945;BME280;53853;51.982;5.928;2023-05-08T10:12:06;102027.44;;;21.48;77.02
66945;BME280;53853;51.982;5.928;2023-05-08T10:14:36;102028.66;;;21.60;70.75
66945;BME280;53853;51.982;5.928;2023-05-08T10:17:07;102034.38;;;21.50;69.54
66945;BME280;53853;51.982;5.928;2023-05-08T10:19:43;102024.63;;;21.56;70.84
66945;BME280;53853;51.982;5.928;2023-05-08T10:22:15;102028.13;;;21.71;72.73
66945;BME280;53853;51.982;5.928;2023-05-08T10:24:49;102024.72;;;21.91;73.75
66945;BME280;53853;51.982;5.928;2023-05-08T10:27:33;102025.69;;;22.05;73.92
66945;BME280;53853;51.982;5.928;2023-05-08T10:30:04;102017.66;;;22.25;75.17
66945;BME280;53853;51.982;5.928;2023-05-08T10:32:38;102017.38;;;22.41;75.32
66945;BME280;53853;51.982;5.928;2023-05-08T10:35:11;102018.53;;;22.60;73.02
66945;BME280;53853;51.982;5.928;2023-05-08T10:37:41;102019.16;;;22.63;72.00
66945;BME280;53853;51.982;5.928;2023-05-08T10:40:14;102020.00;;;22.63;70.88
66945;BME280;53853;51.982;5.928;2023-05-08T10:42:47;102015.22;;;22.65;71.47
66945;BME280;53853;51.982;5.928;2023-05-08T10:45:18;102013.13;;;22.67;71.53
66945;BME280;53853;51.982;5.928;2023-05-08T10:47:54;102010.00;;;22.64;68.11
66945;BME280;53853;51.982;5.928;2023-05-08T10:50:37;102013.53;;;22.64;70.29
66945;BME280;53853;51.982;5.928;2023-05-08T10:53:14;102003.94;;;22.68;70.40
66945;BME280;53853;51.982;5.928;2023-05-08T10:55:49;101997.44;;;22.63;68.92
66945;BME280;53853;51.982;5.928;2023-05-08T10:58:32;102004.25;;;22.52;67.11
66945;BME280;53853;51.982;5.928;2023-05-08T11:01:12;102008.19;;;22.42;67.82
66945;BME280;53853;51.982;5.928;2023-05-08T11:03:44;102013.78;;;22.34;67.28
66945;BME280;53853;51.982;5.928;2023-05-08T11:06:16;102007.63;;;22.19;64.68
66945;BME280;53853;51.982;5.928;2023-05-08T11:08:48;102008.19;;;21.86;66.95
66945;BME280;53853;51.982;5.928;2023-05-08T11:11:29;102020.09;;;21.63;67.32
66945;BME280;53853;51.982;5.928;2023-05-08T11:14:11;102018.97;;;21.36;67.97
66945;BME280;53853;51.982;5.928;2023-05-08T11:17:03;102012.63;;;21.07;69.42
66945;BME280;53853;51.982;5.928;2023-05-08T11:19:55;102003.34;;;20.80;70.23
66945;BME280;53853;51.982;5.928;2023-05-08T11:22:27;102008.25;;;20.61;71.26
66945;BME280;53853;51.982;5.928;2023-05-08T11:25:00;102002.31;;;20.51;72.93
66945;BME280;53853;51.982;5.928;2023-05-08T11:30:38;102019.75;;;20.49;74.32
66945;BME280;53853;51.982;5.928;2023-05-08T11:33:13;102012.19;;;20.44;74.90
66945;BME280;53853;51.982;5.928;2023-05-08T11:35:48;102016.59;;;20.45;75.36
66945;BME280;53853;51.982;5.928;2023-05-08T11:38:21;102014.63;;;20.54;76.77
66945;BME280;53853;51.982;5.928;2023-05-08T11:40:55;102014.06;;;20.58;76.81
66945;BME280;53853;51.982;5.928;2023-05-08T11:46:38;102014.72;;;20.60;77.54
66945;BME280;53853;51.982;5.928;2023-05-08T11:49:12;102004.28;;;20.57;77.27
66945;BME280;53853;51.982;5.928;2023-05-08T11:51:44;101997.63;;;20.60;77.23
66945;BME280;53853;51.982;5.928;2023-05-08T11:54:16;101999.13;;;20.62;77.93
66945;BME280;53853;51.982;5.928;2023-05-08T11:56:46;101999.78;;;20.65;78.68
66945;BME280;53853;51.982;5.928;2023-05-08T11:59:17;101993.34;;;20.66;79.01
66945;BME280;53853;51.982;5.928;2023-05-08T12:01:50;101988.97;;;20.65;78.14
66945;BME280;53853;51.982;5.928;2023-05-08T12:04:20;101990.09;;;20.70;79.18
66945;BME280;53853;51.982;5.928;2023-05-08T12:06:56;101994.75;;;20.76;78.99
66945;BME280;53853;51.982;5.928;2023-05-08T12:09:27;101996.03;;;20.80;77.72
66945;BME280;53853;51.982;5.928;2023-05-08T12:11:57;101988.47;;;20.91;78.19
66945;BME280;53853;51.982;5.928;2023-05-08T12:14:27;101992.16;;;21.05;79.24
66945;BME280;53853;51.982;5.928;2023-05-08T12:17:01;101999.41;;;21.19;78.73
66945;BME280;53853;51.982;5.928;2023-05-08T12:19:31;101992.22;;;21.33;79.72
66945;BME280;53853;51.982;5.928;2023-05-08T12:22:01;101995.69;;;21.42;79.94
66945;BME280;53853;51.982;5.928;2023-05-08T12:24:30;101996.94;;;21.46;79.72
66945;BME280;53853;51.982;5.928;2023-05-08T12:27:03;101999.66;;;21.46;80.57
66945;BME280;53853;51.982;5.928;2023-05-08T12:29:35;101992.13;;;21.41;79.66
66945;BME280;53853;51.982;5.928;2023-05-08T12:32:08;101991.03;;;21.35;78.38
66945;BME280;53853;51.982;5.928;2023-05-08T12:34:38;101986.38;;;21.29;77.12
66945;BME280;53853;51.982;5.928;2023-05-08T12:37:08;101978.19;;;21.23;76.15
66945;BME280;53853;51.982;5.928;2023-05-08T12:39:43;101981.28;;;21.20;76.63
66945;BME280;53853;51.982;5.928;2023-05-08T12:42:13;101981.00;;;21.14;76.22
66945;BME280;53853;51.982;5.928;2023-05-08T12:44:49;101977.19;;;21.09;76.25
66945;BME280;53853;51.982;5.928;2023-05-08T12:47:25;101976.75;;;21.05;76.57
66945;BME280;53853;51.982;5.928;2023-05-08T12:49:57;101973.38;;;21.03;77.19
66945;BME280;53853;51.982;5.928;2023-05-08T12:52:27;101967.50;;;20.99;76.76
66945;BME280;53853;51.982;5.928;2023-05-08T12:54:57;101969.00;;;21.02;77.44
66945;BME280;53853;51.982;5.928;2023-05-08T12:57:27;101962.34;;;21.05;77.37
66945;BME280;53853;51.982;5.928;2023-05-08T13:00:03;101958.94;;;21.17;78.39
66945;BME280;53853;51.982;5.928;2023-05-08T13:02:36;101961.78;;;21.31;79.45
66945;BME280;53853;51.982;5.928;2023-05-08T13:05:06;101955.38;;;21.39;78.28
66945;BME280;53853;51.982;5.928;2023-05-08T13:07:36;101951.16;;;21.51;77.98
66945;BME280;53853;51.982;5.928;2023-05-08T13:10:06;101952.94;;;21.65;79.18
66945;BME280;53853;51.982;5.928;2023-05-08T13:12:36;101951.50;;;21.69;77.69
66945;BME280;53853;51.982;5.928;2023-05-08T13:15:07;101943.34;;;21.69;75.16
66945;BME280;53853;51.982;5.928;2023-05-08T13:17:40;101943.03;;;21.79;76.98
66945;BME280;53853;51.982;5.928;2023-05-08T13:20:10;101947.25;;;21.88;77.59
66945;BME280;53853;51.982;5.928;2023-05-08T13:22:40;101947.72;;;21.92;76.65
66945;BME280;53853;51.982;5.928;2023-05-08T13:25:10;101941.69;;;21.97;76.34